createdAt,value
2019-02-16T00:00:47.785Z,94.38
2019-02-16T00:03:16.324Z,96.31
2019-02-16T00:05:45.685Z,94.19
2019-02-16T00:08:15.000Z,94.19
2019-02-16T00:10:43.418Z,95.06
2019-02-16T00:13:12.046Z,95.68
2019-02-16T00:15:41.353Z,95.42
2019-02-16T00:18:09.877Z,95.22
2019-02-16T00:20:38.403Z,95.38
2019-02-16T00:23:07.719Z,95.82
2019-02-16T00:25:37.054Z,96.87
2019-02-16T00:30:48.360Z,95.46
2019-02-16T00:33:17.751Z,96.72
2019-02-16T00:35:47.078Z,94.87
2019-02-16T00:38:16.400Z,95.04
2019-02-16T00:40:45.729Z,95.48
2019-02-16T00:43:14.144Z,95.55
2019-02-16T00:45:42.567Z,94.85
2019-02-16T00:48:11.884Z,96.01
2019-02-16T00:50:41.178Z,94.97
2019-02-16T00:53:10.574Z,94.01
2019-02-16T00:55:39.899Z,95.31
2019-02-16T00:58:09.230Z,94.98
2019-02-16T01:00:38.546Z,95.31
2019-02-16T01:03:07.986Z,94.73
2019-02-16T01:05:37.307Z,94.01
2019-02-16T01:08:05.837Z,94.50
2019-02-16T01:10:35.162Z,95.30
2019-02-16T01:13:03.689Z,94.34
2019-02-16T01:15:33.012Z,95.23
2019-02-16T01:18:02.329Z,95.31
2019-02-16T01:20:31.646Z,94.75
2019-02-16T01:23:01.037Z,94.59
2019-02-16T01:25:30.386Z,94.57
2019-02-16T01:27:58.903Z,94.12
2019-02-16T01:30:27.526Z,96.05
2019-02-16T01:32:56.838Z,97.28
2019-02-16T01:35:25.346Z,95.44
2019-02-16T01:37:54.681Z,93.73
2019-02-16T01:40:23.999Z,94.38
2019-02-16T01:42:53.330Z,94.86
2019-02-16T01:45:22.642Z,94.75
2019-02-16T01:47:51.966Z,94.91
2019-02-16T01:50:21.302Z,95.67
2019-02-16T01:52:50.617Z,96.46
2019-02-16T01:55:19.042Z,95.00
2019-02-16T02:00:49.842Z,95.59
2019-02-16T02:03:18.366Z,95.93
2019-02-16T02:05:58.952Z,94.50
2019-02-16T02:08:27.472Z,95.32
2019-02-16T02:10:56.802Z,95.03
2019-02-16T02:13:26.417Z,94.94
2019-02-16T02:15:55.759Z,94.34
2019-02-16T02:18:25.094Z,94.03
2019-02-16T02:20:54.395Z,93.78
2019-02-16T02:23:23.712Z,93.05
2019-02-16T02:25:53.026Z,93.85
2019-02-16T02:28:21.426Z,92.95
2019-02-16T02:30:49.964Z,93.30
2019-02-16T02:33:19.287Z,93.57
2019-02-16T02:35:48.613Z,94.35
2019-02-16T02:38:17.932Z,93.66
2019-02-16T02:40:47.350Z,92.30
2019-02-16T02:43:16.686Z,94.62
2019-02-16T02:45:46.013Z,93.55
2019-02-16T02:48:15.340Z,93.05
2019-02-16T02:50:43.742Z,93.37
2019-02-16T02:53:13.063Z,93.76
2019-02-16T02:55:42.385Z,94.94
2019-02-16T02:58:23.321Z,93.83
2019-02-16T03:00:51.852Z,95.33
2019-02-16T03:03:21.178Z,95.87
2019-02-16T03:05:50.481Z,95.61
2019-02-16T03:08:19.799Z,96.55
2019-02-16T03:10:49.105Z,98.18
2019-02-16T03:13:18.437Z,98.30
2019-02-16T03:15:47.759Z,97.85
2019-02-16T03:18:17.091Z,96.82
2019-02-16T03:20:46.393Z,97.65
2019-02-16T03:23:16.425Z,98.51
2019-02-16T03:26:23.665Z,97.43
2019-02-16T03:29:30.981Z,98.90
2019-02-16T03:32:39.029Z,97.96
2019-02-16T03:35:46.279Z,98.68
2019-02-16T03:38:40.955Z,97.77
2019-02-16T03:41:10.287Z,98.55
2019-02-16T03:43:38.817Z,97.75
2019-02-16T03:46:08.146Z,97.93
2019-02-16T03:48:36.636Z,98.39
2019-02-16T03:51:05.163Z,98.06
2019-02-16T03:53:34.482Z,97.71
2019-02-16T03:56:03.801Z,99.67
2019-02-16T03:58:32.518Z,98.63
2019-02-16T04:01:01.881Z,99.36
2019-02-16T04:03:31.190Z,98.75
2019-02-16T04:06:00.862Z,99.74
2019-02-16T04:08:29.263Z,98.38
2019-02-16T04:10:57.986Z,99.11
2019-02-16T04:13:26.394Z,99.53
2019-02-16T04:15:55.724Z,99.83
2019-02-16T04:18:25.054Z,98.05
2019-02-16T04:20:54.368Z,97.76
2019-02-16T04:23:23.677Z,97.21
2019-02-16T04:25:52.995Z,96.75
2019-02-16T04:28:22.325Z,96.47
2019-02-16T04:30:50.840Z,96.65
2019-02-16T04:33:20.156Z,96.83
2019-02-16T04:35:48.669Z,96.71
2019-02-16T04:38:17.200Z,96.67
2019-02-16T04:40:46.524Z,97.09
2019-02-16T04:43:15.906Z,96.05
2019-02-16T04:45:45.221Z,95.75
2019-02-16T04:48:13.747Z,96.41
2019-02-16T04:50:43.077Z,95.41
2019-02-16T04:53:12.403Z,94.74
2019-02-16T04:55:40.911Z,94.15
2019-02-16T04:58:09.445Z,93.87
2019-02-16T05:00:38.754Z,94.56
2019-02-16T05:03:08.147Z,95.58
2019-02-16T05:05:37.465Z,93.98
2019-02-16T05:08:06.874Z,93.69
2019-02-16T05:10:36.187Z,94.03
2019-02-16T05:13:05.511Z,94.05
2019-02-16T05:15:34.830Z,92.96
2019-02-16T05:18:04.190Z,92.61
2019-02-16T05:20:33.514Z,94.38
2019-02-16T05:23:01.934Z,93.46
2019-02-16T05:25:30.535Z,93.96
2019-02-16T05:27:59.873Z,92.15
2019-02-16T05:30:28.316Z,92.56
2019-02-16T05:32:57.652Z,92.65
2019-02-16T05:35:26.969Z,90.63
2019-02-16T05:37:56.301Z,91.24
2019-02-16T05:40:24.799Z,91.21
2019-02-16T05:42:53.321Z,91.92
2019-02-16T05:45:21.849Z,92.43
2019-02-16T05:47:50.362Z,91.51
2019-02-16T05:50:19.682Z,92.01
2019-02-16T05:52:54.549Z,91.45
2019-02-16T05:55:38.213Z,91.83
2019-02-16T05:58:07.545Z,92.42
2019-02-16T06:00:36.156Z,93.37
2019-02-16T06:03:04.680Z,94.10
2019-02-16T06:05:34.020Z,93.77
2019-02-16T06:08:03.348Z,94.63
2019-02-16T06:10:32.658Z,94.67
2019-02-16T06:13:02.038Z,93.61
2019-02-16T06:15:31.367Z,94.32
2019-02-16T06:17:59.895Z,94.19
2019-02-16T06:20:29.199Z,94.67
2019-02-16T06:23:04.327Z,94.89
2019-02-16T06:25:47.758Z,95.22
2019-02-16T06:28:16.258Z,94.54
2019-02-16T06:30:44.683Z,94.82
2019-02-16T06:33:14.016Z,95.65
2019-02-16T06:36:02.812Z,95.02
2019-02-16T06:38:32.139Z,95.60
2019-02-16T06:41:01.466Z,94.28
2019-02-16T06:43:30.924Z,94.62
2019-02-16T06:46:00.940Z,94.23
2019-02-16T06:48:29.490Z,94.41
2019-02-16T06:50:58.016Z,94.18
2019-02-16T06:53:26.639Z,95.05
2019-02-16T06:56:03.183Z,95.11
2019-02-16T06:58:31.794Z,94.30
2019-02-16T07:01:01.138Z,94.46
2019-02-16T07:03:30.463Z,94.40
2019-02-16T07:05:59.801Z,94.35
2019-02-16T07:08:28.232Z,95.19
2019-02-16T07:10:56.867Z,94.41
2019-02-16T07:13:26.208Z,94.79
2019-02-16T07:16:14.997Z,94.22
2019-02-16T07:18:48.772Z,95.05
2019-02-16T07:21:17.310Z,94.77
2019-02-16T07:23:46.640Z,95.00
2019-02-16T07:26:15.958Z,94.69
2019-02-16T07:28:44.371Z,93.06
2019-02-16T07:31:12.891Z,92.07
2019-02-16T07:33:41.432Z,92.83
2019-02-16T07:36:09.850Z,93.60
2019-02-16T07:38:39.177Z,92.65
2019-02-16T07:41:08.504Z,92.72
2019-02-16T07:43:57.290Z,93.08
2019-02-16T07:46:34.729Z,93.74
2019-02-16T07:49:08.949Z,92.23
2019-02-16T07:51:59.173Z,91.84
2019-02-16T07:54:36.402Z,90.74
2019-02-16T07:57:21.184Z,89.83
2019-02-16T08:00:09.207Z,90.15
2019-02-16T08:02:57.195Z,90.80
2019-02-16T08:05:45.168Z,91.43
2019-02-16T08:08:28.391Z,90.46
2019-02-16T08:11:17.189Z,90.78
2019-02-16T08:14:05.189Z,89.71
2019-02-16T08:16:53.175Z,90.56
2019-02-16T08:19:39.151Z,89.16
2019-02-16T08:22:27.938Z,90.14
2019-02-16T08:25:15.816Z,88.42
2019-02-16T08:28:03.907Z,90.81
2019-02-16T08:30:47.982Z,94.26
2019-02-16T08:33:35.975Z,87.86
2019-02-16T08:36:23.872Z,91.63
2019-02-16T08:39:11.868Z,88.90
2019-02-16T08:41:59.881Z,88.47
2019-02-16T08:44:47.880Z,89.99
2019-02-16T08:47:22.689Z,86.11
2019-02-16T08:50:11.471Z,91.18
2019-02-16T08:52:59.471Z,92.66
2019-02-16T08:55:47.465Z,88.13
2019-02-16T08:58:35.443Z,88.60
2019-02-16T09:01:23.443Z,88.59
2019-02-16T09:04:02.968Z,84.07
2019-02-16T09:06:51.747Z,87.92
2019-02-16T09:09:39.740Z,84.57
2019-02-16T09:12:27.730Z,83.74
2019-02-16T09:15:15.725Z,82.81
2019-02-16T09:18:03.770Z,81.42
2019-02-16T09:20:52.535Z,81.30
2019-02-16T09:23:40.478Z,83.88
2019-02-16T09:26:26.345Z,78.64
2019-02-16T09:29:03.549Z,80.77
2019-02-16T09:31:52.328Z,78.34
2019-02-16T09:34:31.217Z,79.63
2019-02-16T09:37:20.006Z,81.87
2019-02-16T09:40:08.207Z,80.17
2019-02-16T09:42:56.190Z,79.24
2019-02-16T09:45:44.139Z,77.82
2019-02-16T09:48:19.827Z,75.10
2019-02-16T09:51:07.764Z,75.34
2019-02-16T09:53:56.628Z,76.87
2019-02-16T09:57:06.617Z,78.83
2019-02-16T09:59:44.109Z,75.95
2019-02-16T10:02:32.137Z,74.42
2019-02-16T10:05:09.816Z,77.13
2019-02-16T10:07:57.826Z,78.16
2019-02-16T10:10:51.554Z,75.47
2019-02-16T10:13:39.538Z,77.54
2019-02-16T10:16:20.741Z,78.06
2019-02-16T10:19:08.651Z,78.80
2019-02-16T10:21:56.640Z,82.44
2019-02-16T10:31:35.027Z,75.69
2019-02-16T10:34:32.274Z,74.50
2019-02-16T10:37:26.165Z,74.71
2019-02-16T10:40:12.679Z,76.94
2019-02-16T10:42:52.983Z,75.06
2019-02-16T10:45:41.833Z,81.24
2019-02-16T10:48:29.819Z,75.98
2019-02-16T10:51:05.651Z,79.05
2019-02-16T10:53:53.774Z,77.60
2019-02-16T10:56:41.784Z,74.47
2019-02-16T10:59:29.779Z,75.25
2019-02-16T11:02:05.712Z,76.90
2019-02-16T11:04:53.739Z,75.59
2019-02-16T11:07:38.801Z,74.62
2019-02-16T11:10:23.390Z,75.17
2019-02-16T11:13:11.324Z,74.88
2019-02-16T11:15:59.331Z,72.96
2019-02-16T11:18:47.303Z,71.01
2019-02-16T11:21:35.290Z,83.64
2019-02-16T11:24:23.310Z,70.55
2019-02-16T11:27:11.350Z,71.22
2019-02-16T11:30:00.276Z,71.80
2019-02-16T11:32:49.107Z,72.60
2019-02-16T11:35:37.153Z,77.28
2019-02-16T11:38:16.271Z,71.65
2019-02-16T11:41:22.935Z,71.86
2019-02-16T11:44:10.957Z,75.08
2019-02-16T11:46:58.954Z,76.15
2019-02-16T11:49:46.944Z,82.37
2019-02-16T11:52:34.994Z,76.38
2019-02-16T11:55:24.150Z,78.12
2019-02-16T11:58:12.948Z,79.10
2019-02-16T12:01:01.003Z,84.05
2019-02-16T12:03:49.804Z,72.95
2019-02-16T12:06:37.868Z,70.88
2019-02-16T12:12:27.846Z,68.94
2019-02-16T12:15:15.862Z,76.27
2019-02-16T12:18:10.633Z,75.82
2019-02-16T12:20:58.702Z,69.99
2019-02-16T12:23:47.487Z,72.01
2019-02-16T12:26:35.486Z,69.56
2019-02-16T12:29:23.466Z,74.88
2019-02-16T12:32:08.824Z,81.10
2019-02-16T12:34:56.795Z,73.67
2019-02-16T12:37:32.043Z,71.85
2019-02-16T12:40:20.037Z,70.87
2019-02-16T12:43:04.529Z,71.75
2019-02-16T12:45:51.172Z,69.81
2019-02-16T12:48:38.067Z,77.62
2019-02-16T12:51:26.061Z,78.57
2019-02-16T12:54:17.301Z,76.74
2019-02-16T12:57:05.210Z,80.16
2019-02-16T12:59:53.271Z,83.14
2019-02-16T13:02:41.479Z,82.34
2019-02-16T13:05:29.459Z,78.13
2019-02-16T13:08:17.360Z,71.71
2019-02-16T13:11:06.243Z,75.06
2019-02-16T13:13:54.291Z,75.17
2019-02-16T13:16:42.292Z,75.92
2019-02-16T13:19:22.799Z,70.61
2019-02-16T13:21:59.919Z,71.66
2019-02-16T13:24:47.908Z,70.78
2019-02-16T13:27:35.892Z,70.01
2019-02-16T13:30:24.366Z,68.60
2019-02-16T13:33:08.328Z,73.23
2019-02-16T13:35:49.799Z,68.69
2019-02-16T13:38:38.711Z,74.47
2019-02-16T13:41:27.483Z,71.30
2019-02-16T13:44:06.025Z,69.16
2019-02-16T13:46:54.019Z,71.62
2019-02-16T13:49:42.060Z,71.07
2019-02-16T13:52:30.861Z,70.88
2019-02-16T13:55:18.863Z,70.21
2019-02-16T13:58:06.755Z,69.30
2019-02-16T14:00:41.209Z,71.63
2019-02-16T14:03:30.018Z,76.24
2019-02-16T14:06:18.133Z,69.40
2019-02-16T14:09:06.150Z,76.22
2019-02-16T14:11:43.861Z,77.43
2019-02-16T14:14:32.646Z,71.23
2019-02-16T14:17:09.785Z,72.88
2019-02-16T14:19:38.332Z,71.88
2019-02-16T14:22:06.993Z,73.65
2019-02-16T14:24:55.779Z,72.35
2019-02-16T14:27:25.102Z,76.35
2019-02-16T14:29:54.456Z,78.07
2019-02-16T14:32:23.799Z,75.27
2019-02-16T14:34:53.130Z,69.37
2019-02-16T14:40:32.291Z,74.78
2019-02-16T14:43:01.782Z,72.50
2019-02-16T14:48:25.676Z,77.70
2019-02-16T14:50:55.009Z,77.84
2019-02-16T14:53:24.468Z,76.89
2019-02-16T14:55:54.470Z,72.86
2019-02-16T14:58:23.917Z,77.45
2019-02-16T16:05:05.883Z,79.01
2019-02-16T16:07:35.545Z,78.87
2019-02-16T16:10:24.607Z,79.13
2019-02-16T16:13:12.596Z,78.86
2019-02-16T16:16:00.483Z,81.50
2019-02-16T16:18:48.495Z,80.14
2019-02-16T16:21:31.004Z,80.22
2019-02-16T16:24:24.994Z,79.38
2019-02-16T16:27:12.997Z,80.68
2019-02-16T16:30:00.979Z,81.50
2019-02-16T16:32:44.673Z,82.24
2019-02-16T16:35:32.679Z,83.25
2019-02-16T16:38:20.568Z,83.87
2019-02-16T16:41:08.563Z,86.18
2019-02-16T16:43:56.553Z,85.86
2019-02-16T16:46:44.547Z,87.82
2019-02-16T16:49:44.578Z,85.58
2019-02-16T16:52:32.658Z,87.65
2019-02-16T16:55:20.691Z,86.15
2019-02-16T16:58:08.695Z,86.75
2019-02-16T17:00:56.687Z,87.87
2019-02-16T17:03:44.679Z,87.60
2019-02-16T17:06:32.565Z,87.89
2019-02-16T17:09:20.653Z,88.34
2019-02-16T17:12:08.689Z,90.07
2019-02-16T17:14:44.300Z,88.34
2019-02-16T17:17:32.392Z,88.68
2019-02-16T17:20:20.269Z,91.33
2019-02-16T17:23:08.272Z,88.64
2019-02-16T17:25:57.068Z,88.79
2019-02-16T17:28:45.898Z,88.69
2019-02-16T17:31:33.893Z,89.56
2019-02-16T17:34:21.886Z,89.26
2019-02-16T17:37:10.030Z,88.97
2019-02-16T17:39:58.886Z,89.72
2019-02-16T17:42:46.865Z,89.86
2019-02-16T17:45:34.961Z,90.53
2019-02-16T17:48:23.010Z,91.17
2019-02-16T17:51:11.093Z,91.23
2019-02-16T17:54:08.141Z,91.25
2019-02-16T17:57:08.575Z,91.59
2019-02-16T17:59:56.567Z,92.08
2019-02-16T18:02:44.569Z,92.37
2019-02-16T18:05:32.665Z,93.27
2019-02-16T18:08:21.423Z,93.76
2019-02-16T18:11:09.324Z,93.44
2019-02-16T18:13:58.176Z,93.96
2019-02-16T18:16:34.342Z,93.83
2019-02-16T18:19:22.337Z,93.77
2019-02-16T18:22:10.333Z,93.91
2019-02-16T18:24:58.391Z,94.10
2019-02-16T18:27:46.665Z,95.03
2019-02-16T18:30:35.482Z,95.21
2019-02-16T18:33:23.662Z,95.14
2019-02-16T18:36:11.654Z,95.40
2019-02-16T18:38:59.657Z,97.04
2019-02-16T18:41:47.618Z,95.95
2019-02-16T18:44:35.600Z,96.44
2019-02-16T18:47:23.591Z,97.65
2019-02-16T18:50:11.579Z,97.17
2019-02-16T18:52:59.547Z,96.65
2019-02-16T18:55:47.553Z,97.60
2019-02-16T18:58:35.538Z,97.39
2019-02-16T19:01:23.529Z,98.80
2019-02-16T19:04:11.515Z,98.52
2019-02-16T19:06:59.500Z,98.74
2019-02-16T19:09:47.547Z,98.56
2019-02-16T19:12:35.543Z,98.03
2019-02-16T19:15:23.941Z,99.19
2019-02-16T19:18:11.909Z,99.94
2019-02-16T19:21:00.004Z,100.00
2019-02-16T19:23:47.984Z,100.00
2019-02-16T19:26:36.820Z,99.27
2019-02-16T19:29:15.705Z,99.39
2019-02-16T19:32:04.508Z,100.00
2019-02-16T19:34:53.438Z,100.00
2019-02-16T19:40:28.301Z,100.00
2019-02-16T19:43:18.379Z,100.00
2019-02-16T19:46:06.369Z,100.00
2019-02-16T19:48:54.339Z,100.00
2019-02-16T19:51:43.129Z,100.00
2019-02-16T19:54:31.111Z,100.00
2019-02-16T19:57:26.655Z,100.00
2019-02-16T20:00:09.049Z,100.00
2019-02-16T20:02:56.939Z,100.00
2019-02-16T20:05:44.992Z,100.00
2019-02-16T20:08:33.779Z,100.00
2019-02-16T20:11:21.876Z,100.00
2019-02-16T20:14:09.880Z,100.00
2019-02-16T20:16:57.870Z,100.00
2019-02-16T20:19:45.842Z,100.00
2019-02-16T20:22:33.715Z,100.00
2019-02-16T20:25:11.957Z,100.00
2019-02-16T20:27:59.935Z,100.00
2019-02-16T20:30:47.997Z,100.00
2019-02-16T20:33:42.422Z,100.00
2019-02-16T20:36:31.210Z,100.00
2019-02-16T20:39:19.234Z,100.00
2019-02-16T20:42:07.225Z,100.00
2019-02-16T20:44:44.841Z,100.00
2019-02-16T20:47:33.639Z,100.00
2019-02-16T20:50:21.642Z,100.00
2019-02-16T20:53:09.583Z,100.00
2019-02-16T20:55:58.367Z,100.00
2019-02-16T20:58:46.355Z,100.00
2019-02-16T21:01:34.343Z,100.00
2019-02-16T21:04:22.347Z,100.00
2019-02-16T21:07:10.224Z,100.00
2019-02-16T21:09:58.227Z,100.00
2019-02-16T21:12:48.615Z,100.00
2019-02-16T21:15:36.089Z,100.00
2019-02-16T21:18:24.069Z,100.00
2019-02-16T21:21:12.055Z,100.00
2019-02-16T21:24:00.130Z,100.00
2019-02-16T21:26:37.084Z,100.00
2019-02-16T21:29:23.611Z,100.00
2019-02-16T21:32:11.649Z,100.00
2019-02-16T21:34:56.104Z,100.00
2019-02-16T21:37:44.091Z,100.00
2019-02-16T21:40:32.082Z,100.00
2019-02-16T21:43:20.116Z,100.00
2019-02-16T21:45:59.426Z,100.00
2019-02-16T21:48:47.406Z,100.00
2019-02-16T21:51:35.281Z,100.00
2019-02-16T21:54:23.253Z,100.00
2019-02-16T21:57:01.581Z,100.00
2019-02-16T21:59:50.351Z,100.00
2019-02-16T22:02:38.339Z,100.00
2019-02-16T22:05:27.161Z,100.00
2019-02-16T22:08:14.441Z,100.00
2019-02-16T22:11:03.235Z,100.00
2019-02-16T22:13:31.752Z,100.00
2019-02-16T22:16:00.379Z,100.00
2019-02-16T22:18:28.890Z,100.00
2019-02-16T22:20:58.195Z,100.00
2019-02-16T22:23:27.642Z,100.00
2019-02-16T22:25:56.997Z,100.00
2019-02-16T22:28:31.038Z,100.00
2019-02-16T22:31:17.788Z,100.00
2019-02-16T22:34:04.876Z,100.00
2019-02-16T22:36:34.513Z,100.00
2019-02-16T22:39:04.946Z,100.00
2019-02-16T22:41:33.567Z,100.00
2019-02-16T22:44:02.908Z,100.00
2019-02-16T22:46:31.459Z,100.00
2019-02-16T22:49:00.785Z,100.00
2019-02-16T22:51:30.094Z,100.00
2019-02-16T22:53:59.637Z,100.00
2019-02-16T22:56:28.976Z,100.00
2019-02-16T22:58:58.296Z,100.00
2019-02-16T23:01:27.774Z,100.00
2019-02-16T23:04:08.667Z,100.00
2019-02-16T23:06:37.086Z,100.00
2019-02-16T23:09:12.134Z,100.00
2019-02-16T23:11:40.558Z,100.00
2019-02-16T23:14:09.881Z,100.00
2019-02-16T23:16:39.196Z,100.00
2019-02-16T23:19:07.830Z,100.00
2019-02-16T23:21:37.129Z,100.00
2019-02-16T23:24:06.451Z,100.00
2019-02-16T23:26:34.966Z,100.00
2019-02-16T23:29:04.425Z,100.00
2019-02-16T23:31:32.949Z,100.00
2019-02-16T23:34:02.269Z,100.00
2019-02-16T23:36:31.616Z,100.00
2019-02-16T23:39:03.832Z,100.00
2019-02-16T23:41:32.345Z,100.00
2019-02-16T23:44:01.670Z,100.00
2019-02-16T23:46:30.998Z,100.00
2019-02-16T23:48:59.516Z,100.00
2019-02-16T23:51:28.930Z,100.00
2019-02-16T23:53:58.240Z,100.00
2019-02-16T23:56:26.766Z,100.00
2019-02-16T23:58:56.073Z,100.00
